Renchville, Illinois
Current Conditions -  °F | °C
As of 4:55 PM on Monday 24 Nov 2014 (Local Time) from KC75 Reporting Station
Light Snow Light Snow  
Wind Chill: 19°   Ceiling: 1300
Heat Index: 28°   Visibility: 3mi
Dew Point: 25°   Wind: 9mph
Humidity: 88%   Direction: 260°W
Pressure: 29.73"   Gusts: 21mph
Location:  40.915°N, 89.5303°W
Report Text: KC75 242255Z AUTO 26008G18KT 3SM -SN BKN013 OVC018 M02/M04 A2973 RMK AO2 T10211038
Loading
Personal Weather Stations






























Interactive Weather Map New forecast layout! Learn more

10-Day Weather Forecast

Advertisements
Track Severe Weather on mobile